Time;durP1;ratioP1;P1;durP2;ratioP2;P2;SDS_P1;SDS_P2;PMS_P1;PMS_P2;Temp;Humidity;BMP_temperature;BMP_pressure;BME280_temperature;BME280_humidity;BME280_pressure;Samples;Min_cycle;Max_cycle;Signal;HPM_P1;HPM_P2
2021/06/04 00:00:18;;;;;;;11.63;10.43;;;16.30;99.90;;;;;;5070760;28;20489;-66
2021/06/04 00:02:45;;;;;;;11.63;10.53;;;16.20;99.90;;;;;;5071097;28;20534;-66
2021/06/04 00:05:13;;;;;;;11.93;10.73;;;16.10;99.90;;;;;;5071057;28;20443;-66
2021/06/04 00:07:40;;;;;;;11.47;10.37;;;16.10;99.90;;;;;;5070863;28;20862;-67
2021/06/04 00:10:09;;;;;;;10.00;9.10;;;16.20;99.90;;;;;;5070741;28;20481;-67
2021/06/04 00:12:35;;;;;;;10.60;9.60;;;16.20;99.90;;;;;;5071209;28;20453;-67
2021/06/04 00:15:01;;;;;;;10.27;9.37;;;16.10;99.90;;;;;;5070842;28;20530;-67
2021/06/04 00:17:29;;;;;;;10.33;9.30;;;16.10;99.90;;;;;;5070686;28;20450;-67
2021/06/04 00:19:55;;;;;;;11.43;10.33;;;16.00;99.90;;;;;;5069834;28;20556;-67
2021/06/04 00:22:25;;;;;;;10.97;9.87;;;15.90;99.90;;;;;;5070422;28;20561;-67
2021/06/04 00:24:55;;;;;;;11.23;10.13;;;15.90;99.90;;;;;;5070869;28;20447;-67
2021/06/04 00:27:22;;;;;;;10.23;9.23;;;15.80;99.90;;;;;;5070835;28;20455;-67
2021/06/04 00:29:49;;;;;;;10.20;9.30;;;15.70;99.90;;;;;;5070197;28;20454;-67
2021/06/04 00:32:17;;;;;;;11.17;10.17;;;15.70;99.90;;;;;;5070470;28;20467;-67
2021/06/04 00:34:45;;;;;;;11.17;10.13;;;15.70;99.90;;;;;;5070600;28;20475;-67
2021/06/04 00:37:11;;;;;;;11.93;10.73;;;15.60;99.90;;;;;;5070341;28;20451;-67
2021/06/04 00:39:42;;;;;;;11.03;10.03;;;15.70;99.90;;;;;;5070191;28;20475;-67
2021/06/04 00:42:15;;;;;;;13.87;12.53;;;15.80;99.90;;;;;;5070635;28;20512;-67
2021/06/04 00:44:42;;;;;;;10.60;9.60;;;15.80;99.90;;;;;;5070705;28;20447;-67
2021/06/04 00:47:09;;;;;;;13.70;11.37;;;15.90;99.90;;;;;;5070733;28;20443;-67
2021/06/04 00:49:36;;;;;;;11.37;10.37;;;15.80;99.90;;;;;;5070229;28;20445;-67
2021/06/04 00:52:07;;;;;;;11.20;10.00;;;15.70;99.90;;;;;;5070875;28;20840;-67
2021/06/04 00:54:34;;;;;;;10.53;9.63;;;15.70;99.90;;;;;;5070765;28;20451;-67
2021/06/04 00:57:01;;;;;;;13.30;11.90;;;15.60;99.90;;;;;;5070575;28;20450;-67
2021/06/04 00:59:31;;;;;;;12.83;11.73;;;15.60;99.90;;;;;;5070187;28;20475;-67
2021/06/04 01:01:58;;;;;;;11.87;10.73;;;15.70;99.90;;;;;;5070234;28;20547;-67
2021/06/04 01:04:27;;;;;;;12.47;11.17;;;15.70;99.90;;;;;;5070608;28;20542;-67
2021/06/04 01:07:00;;;;;;;10.80;9.90;;;15.70;99.90;;;;;;5070116;28;20439;-67
2021/06/04 01:10:05;;;;;;;12.17;11.03;;;15.70;99.90;;;;;;5069828;28;20450;-67
2021/06/04 01:12:42;;;;;;;11.87;10.70;;;15.60;99.90;;;;;;5062984;28;20467;-67
2021/06/04 01:15:16;;;;;;;11.40;10.30;;;15.50;99.90;;;;;;5070255;28;20449;-67
2021/06/04 01:17:50;;;;;;;11.37;10.37;;;15.40;99.90;;;;;;5069764;28;20958;-67
2021/06/04 01:20:20;;;;;;;10.97;9.87;;;15.40;99.90;;;;;;5069592;28;20482;-67
2021/06/04 01:23:10;;;;;;;11.90;10.23;;;15.30;99.90;;;;;;5069962;28;20929;-66
2021/06/04 01:25:48;;;;;;;11.07;10.07;;;15.30;99.90;;;;;;5070034;28;20454;-67
2021/06/04 01:28:22;;;;;;;11.53;10.33;;;15.30;99.90;;;;;;5070075;28;20486;-67
2021/06/04 01:30:53;;;;;;;10.63;9.73;;;15.30;99.90;;;;;;5070495;28;20471;-67
2021/06/04 01:33:25;;;;;;;10.60;9.60;;;15.20;99.90;;;;;;5073738;28;20443;-67
2021/06/04 01:35:54;;;;;;;11.50;10.30;;;15.20;99.90;;;;;;5073855;28;20447;-67
2021/06/04 01:38:26;;;;;;;12.70;11.50;;;15.20;99.90;;;;;;5073621;28;21030;-67
2021/06/04 01:40:59;;;;;;;13.67;12.30;;;15.20;99.90;;;;;;5073611;28;20459;-67
2021/06/04 01:43:31;;;;;;;11.53;10.40;;;15.20;99.90;;;;;;5073881;28;20446;-67
2021/06/04 01:46:01;;;;;;;12.03;10.50;;;15.10;99.90;;;;;;5073889;28;20443;-67
2021/06/04 01:48:31;;;;;;;11.03;9.93;;;15.10;99.90;;;;;;5074242;28;20449;-67
2021/06/04 01:51:02;;;;;;;11.70;10.50;;;15.10;99.90;;;;;;5073914;28;20463;-67
2021/06/04 01:53:31;;;;;;;11.43;10.43;;;15.20;99.90;;;;;;5073439;28;20525;-67
2021/06/04 01:56:04;;;;;;;10.53;9.33;;;15.10;99.90;;;;;;5073862;28;21005;-67
2021/06/04 01:58:38;;;;;;;15.17;10.77;;;15.10;99.90;;;;;;5073251;28;20479;-67
2021/06/04 02:01:09;;;;;;;11.17;10.07;;;15.10;99.90;;;;;;5073290;28;20485;-67
2021/06/04 02:03:37;;;;;;;11.17;10.17;;;15.10;99.90;;;;;;5073453;28;20507;-67
2021/06/04 02:06:06;;;;;;;10.80;9.70;;;15.00;99.90;;;;;;5073207;28;20495;-67
2021/06/04 02:08:35;;;;;;;10.90;9.90;;;15.10;99.90;;;;;;5073408;28;20823;-67
2021/06/04 02:11:05;;;;;;;10.70;9.70;;;15.10;99.90;;;;;;5073166;28;20467;-67
2021/06/04 02:13:31;;;;;;;10.97;10.07;;;15.10;99.90;;;;;;5073488;28;20534;-67
2021/06/04 02:16:16;;;;;;;9.57;8.70;;;15.20;99.90;;;;;;5073238;28;20818;-67
2021/06/04 02:18:51;;;;;;;10.57;9.57;;;15.20;99.90;;;;;;5073080;28;20479;-67
2021/06/04 02:21:21;;;;;;;9.60;8.20;;;15.20;99.90;;;;;;5072540;28;20533;-67
2021/06/04 02:23:52;;;;;;;10.07;9.17;;;15.20;99.90;;;;;;5073462;28;20834;-67
2021/06/04 02:26:26;;;;;;;12.43;10.70;;;15.20;99.90;;;;;;5072896;28;20537;-67
2021/06/04 02:28:56;;;;;;;12.23;11.03;;;15.10;99.90;;;;;;5073068;28;20439;-67
2021/06/04 02:31:28;;;;;;;11.73;10.40;;;15.10;99.90;;;;;;5072935;28;20467;-67
2021/06/04 02:34:00;;;;;;;10.87;9.77;;;15.00;99.90;;;;;;5073248;28;20534;-67
2021/06/04 02:36:32;;;;;;;11.70;10.60;;;15.00;99.90;;;;;;5073117;28;20466;-67
2021/06/04 02:39:05;;;;;;;10.20;9.30;;;14.90;99.90;;;;;;5072379;28;20470;-67
2021/06/04 02:41:36;;;;;;;10.10;9.10;;;14.90;99.90;;;;;;5072855;28;20459;-67
2021/06/04 02:44:07;;;;;;;10.03;9.03;;;14.90;99.90;;;;;;5072182;28;20960;-67
2021/06/04 02:46:36;;;;;;;10.97;9.83;;;14.80;99.90;;;;;;5072823;28;20530;-67
2021/06/04 02:49:06;;;;;;;11.60;10.53;;;14.80;99.90;;;;;;5072683;28;20933;-67
2021/06/04 02:51:36;;;;;;;11.23;10.10;;;14.70;99.90;;;;;;5073209;28;20475;-67
2021/06/04 02:54:07;;;;;;;9.97;9.00;;;14.70;99.90;;;;;;5072592;28;21006;-67
2021/06/04 02:56:38;;;;;;;11.13;10.03;;;14.70;99.90;;;;;;5072670;28;20584;-67
2021/06/04 02:59:08;;;;;;;11.27;10.10;;;14.70;99.90;;;;;;5072421;28;20623;-67
2021/06/04 03:01:40;;;;;;;10.97;9.87;;;14.60;99.90;;;;;;5072354;28;20561;-66
2021/06/04 03:04:07;;;;;;;10.87;9.77;;;14.50;99.90;;;;;;5072292;28;20462;-67
2021/06/04 03:06:36;;;;;;;12.00;10.80;;;14.50;99.90;;;;;;5072168;28;20522;-67
2021/06/04 03:09:07;;;;;;;11.50;10.33;;;14.50;99.90;;;;;;5071775;28;20445;-67
2021/06/04 03:11:36;;;;;;;11.87;10.30;;;14.50;99.90;;;;;;5071960;28;20467;-67
2021/06/04 03:14:05;;;;;;;13.73;12.33;;;14.50;99.90;;;;;;5072046;28;20446;-67
2021/06/04 03:16:32;;;;;;;12.93;11.77;;;14.50;99.90;;;;;;5072081;28;20450;-67
2021/06/04 03:19:01;;;;;;;13.10;11.63;;;14.60;99.90;;;;;;5071496;28;20995;-66
2021/06/04 03:21:32;;;;;;;13.30;12.10;;;14.70;99.90;;;;;;5071576;28;20511;-67
2021/06/04 03:24:00;;;;;;;13.20;11.27;;;14.60;99.90;;;;;;5071891;28;20447;-67
2021/06/04 03:26:29;;;;;;;13.07;11.83;;;14.70;99.90;;;;;;5071828;28;20526;-67
2021/06/04 03:29:00;;;;;;;13.47;12.17;;;14.70;99.90;;;;;;5071510;28;20749;-67
2021/06/04 03:31:30;;;;;;;13.07;11.87;;;14.70;99.90;;;;;;5071579;28;20489;-67
2021/06/04 03:33:57;;;;;;;13.77;12.20;;;14.70;99.90;;;;;;5071631;28;20940;-67
2021/06/04 03:36:27;;;;;;;12.47;11.27;;;14.80;99.90;;;;;;5071909;28;20542;-67
2021/06/04 03:38:54;;;;;;;12.40;11.20;;;14.90;99.90;;;;;;5071495;28;20494;-67
2021/06/04 03:41:23;;;;;;;13.17;11.73;;;15.00;99.90;;;;;;5071806;28;20493;-67
2021/06/04 03:43:50;;;;;;;14.00;12.60;;;15.10;99.90;;;;;;5071618;28;20451;-67
2021/06/04 03:46:18;;;;;;;12.87;11.60;;;15.10;99.90;;;;;;5071710;28;20461;-67
2021/06/04 03:48:44;;;;;;;13.17;11.97;;;15.10;99.90;;;;;;5071388;28;20930;-67
2021/06/04 03:51:14;;;;;;;14.00;12.50;;;15.10;99.90;;;;;;5071111;28;20528;-68
2021/06/04 03:53:41;;;;;;;12.63;11.40;;;15.10;99.90;;;;;;5071012;28;20451;-67
2021/06/04 03:56:11;;;;;;;13.23;12.03;;;15.10;99.90;;;;;;5070503;28;20443;-67
2021/06/04 03:58:38;;;;;;;13.67;12.27;;;15.20;99.90;;;;;;5070849;28;20471;-67
2021/06/04 04:01:07;;;;;;;13.63;12.20;;;15.20;99.90;;;;;;5070435;28;20976;-67
2021/06/04 04:03:35;;;;;;;13.30;12.10;;;15.30;99.90;;;;;;5071201;28;20439;-67
2021/06/04 04:06:01;;;;;;;12.47;11.17;;;15.30;99.90;;;;;;5071080;28;20885;-67
2021/06/04 04:08:29;;;;;;;13.50;12.10;;;15.40;99.90;;;;;;5070876;28;20447;-68
2021/06/04 04:10:58;;;;;;;13.07;11.80;;;15.40;99.90;;;;;;5070630;28;20467;-67
2021/06/04 04:13:26;;;;;;;12.30;11.20;;;15.50;99.90;;;;;;5070710;28;20451;-67
2021/06/04 04:15:54;;;;;;;12.03;10.90;;;15.50;99.90;;;;;;5070446;28;20848;-67
2021/06/04 04:18:21;;;;;;;13.07;11.73;;;15.50;99.90;;;;;;5070727;28;20453;-67
2021/06/04 04:20:52;;;;;;;12.50;11.37;;;15.60;99.90;;;;;;5070513;28;20463;-67
2021/06/04 04:23:22;;;;;;;12.73;11.43;;;15.70;99.90;;;;;;5070798;28;20443;-67
2021/06/04 04:25:49;;;;;;;12.10;11.00;;;15.80;99.90;;;;;;5070505;28;20492;-67
2021/06/04 04:28:19;;;;;;;12.97;11.70;;;15.90;99.90;;;;;;5070486;28;20553;-67
2021/06/04 04:30:46;;;;;;;12.23;10.97;;;16.00;99.90;;;;;;5070287;28;20463;-67
2021/06/04 04:33:13;;;;;;;11.57;10.37;;;16.20;99.90;;;;;;5070735;28;20436;-67
2021/06/04 04:35:40;;;;;;;11.80;10.80;;;16.40;99.90;;;;;;5070614;28;20446;-67
2021/06/04 04:38:10;;;;;;;12.20;11.10;;;16.60;99.90;;;;;;5070434;28;20482;-68
2021/06/04 04:40:39;;;;;;;12.00;10.30;;;16.80;99.90;;;;;;5069920;28;20586;-67
2021/06/04 04:43:06;;;;;;;11.10;10.10;;;17.00;99.90;;;;;;5070698;28;20561;-67
2021/06/04 04:45:33;;;;;;;10.63;9.63;;;17.20;99.90;;;;;;5070473;28;21015;-67
2021/06/04 04:48:00;;;;;;;9.30;8.50;;;17.50;99.90;;;;;;5070397;28;20800;-67
2021/06/04 04:50:27;;;;;;;10.57;9.50;;;17.70;99.90;;;;;;5069995;28;20467;-68
2021/06/04 04:52:54;;;;;;;10.70;9.70;;;17.90;99.90;;;;;;5070250;28;20447;-67
2021/06/04 04:55:24;;;;;;;11.70;10.50;;;18.00;99.90;;;;;;5070123;28;20449;-67
2021/06/04 04:57:51;;;;;;;9.80;8.90;;;18.10;99.90;;;;;;5070086;28;20545;-67
2021/06/04 05:00:20;;;;;;;8.87;8.07;;;18.30;99.90;;;;;;5069729;28;20483;-67
2021/06/04 05:02:47;;;;;;;9.57;8.43;;;18.50;99.90;;;;;;5070033;28;20446;-68
2021/06/04 05:05:14;;;;;;;9.10;8.13;;;18.50;99.90;;;;;;5069700;28;20452;-67
2021/06/04 05:07:41;;;;;;;9.80;8.80;;;18.70;99.90;;;;;;5069809;28;20525;-67
2021/06/04 05:10:08;;;;;;;9.30;8.43;;;18.80;99.90;;;;;;5069422;28;20483;-67
2021/06/04 05:12:36;;;;;;;9.20;8.40;;;18.70;99.90;;;;;;5069979;28;21008;-68
2021/06/04 05:15:06;;;;;;;9.70;8.70;;;18.70;99.90;;;;;;5070248;28;20451;-67
2021/06/04 05:17:32;;;;;;;9.63;8.73;;;18.60;99.90;;;;;;5070064;28;20443;-67
2021/06/04 05:19:58;;;;;;;10.13;9.10;;;18.60;99.90;;;;;;5069615;28;20566;-67
2021/06/04 05:22:25;;;;;;;15.20;9.83;;;18.60;99.90;;;;;;5069717;28;20562;-67
2021/06/04 05:24:51;;;;;;;14.90;12.20;;;18.50;99.90;;;;;;5070312;28;20443;-67
2021/06/04 05:27:18;;;;;;;15.40;13.47;;;18.20;99.90;;;;;;5070255;28;20450;-68
2021/06/04 05:29:46;;;;;;;20.67;14.07;;;17.90;99.90;;;;;;5069805;28;20990;-68
2021/06/04 05:32:13;;;;;;;22.80;14.70;;;17.80;99.90;;;;;;5070004;28;20469;-67
2021/06/04 05:34:39;;;;;;;15.90;14.13;;;17.60;99.90;;;;;;5070072;28;20996;-67
2021/06/04 05:37:06;;;;;;;22.70;17.10;;;17.60;99.90;;;;;;5069901;28;20825;-67
2021/06/04 05:39:33;;;;;;;16.90;14.80;;;17.50;99.90;;;;;;5069730;28;20482;-68
2021/06/04 05:42:02;;;;;;;16.47;14.77;;;17.60;99.90;;;;;;5069903;28;20471;-67
2021/06/04 05:44:31;;;;;;;15.87;14.47;;;17.70;99.90;;;;;;5069506;28;20517;-68
2021/06/04 05:47:03;;;;;;;14.30;13.00;;;17.70;99.90;;;;;;5069395;28;20447;-67
2021/06/04 05:49:30;;;;;;;14.77;13.27;;;17.80;99.90;;;;;;5068885;28;20941;-67
2021/06/04 05:51:57;;;;;;;16.53;14.83;;;17.90;99.90;;;;;;5069260;28;20477;-68
2021/06/04 05:54:27;;;;;;;16.23;14.63;;;17.90;99.90;;;;;;5069384;28;20448;-67
2021/06/04 05:56:54;;;;;;;17.10;15.30;;;17.90;99.90;;;;;;5069403;28;20455;-67
2021/06/04 05:59:20;;;;;;;17.07;15.37;;;17.90;99.90;;;;;;5068915;28;20474;-67
2021/06/04 06:01:47;;;;;;;16.70;15.20;;;17.90;99.90;;;;;;5069127;28;20463;-67
2021/06/04 06:04:16;;;;;;;18.17;16.17;;;18.00;99.90;;;;;;5069079;28;20960;-67
2021/06/04 06:06:42;;;;;;;17.30;15.70;;;18.00;99.90;;;;;;5069036;28;20439;-67
2021/06/04 06:09:09;;;;;;;15.33;13.87;;;18.10;99.90;;;;;;5068948;28;20488;-68
2021/06/04 06:11:38;;;;;;;17.40;15.50;;;18.20;99.90;;;;;;5069062;28;20477;-67
2021/06/04 06:14:07;;;;;;;15.90;14.50;;;18.10;99.90;;;;;;5069256;28;20470;-67
2021/06/04 06:16:33;;;;;;;16.97;15.20;;;18.10;99.90;;;;;;5069041;28;20817;-67
2021/06/04 06:19:00;;;;;;;16.40;14.90;;;18.10;99.90;;;;;;5071497;28;20483;-67
2021/06/04 06:21:28;;;;;;;16.23;14.73;;;18.20;99.90;;;;;;5072664;28;20478;-67
2021/06/04 06:23:55;;;;;;;15.93;14.43;;;18.40;99.90;;;;;;5072936;28;20799;-67
2021/06/04 06:26:28;;;;;;;16.17;14.57;;;18.60;99.90;;;;;;5072891;28;20447;-67
2021/06/04 06:28:56;;;;;;;15.20;13.80;;;18.80;99.90;;;;;;5072677;28;20990;-67
2021/06/04 06:31:27;;;;;;;14.87;13.57;;;19.10;99.90;;;;;;5072635;28;20463;-67
2021/06/04 06:33:54;;;;;;;13.87;12.67;;;19.30;99.90;;;;;;5073012;28;20442;-67
2021/06/04 06:36:26;;;;;;;13.90;12.67;;;19.50;99.90;;;;;;5072677;28;20449;-67
2021/06/04 06:38:55;;;;;;;13.73;12.33;;;19.80;99.90;;;;;;5072681;28;20450;-66
2021/06/04 06:41:22;;;;;;;12.53;11.43;;;20.10;99.90;;;;;;5072393;28;20489;-66
2021/06/04 06:43:51;;;;;;;13.60;12.40;;;20.20;99.90;;;;;;5072389;28;20833;-66
2021/06/04 06:46:19;;;;;;;13.10;11.87;;;20.40;99.90;;;;;;5072590;28;20466;-66
2021/06/04 06:48:46;;;;;;;12.30;11.13;;;20.60;99.90;;;;;;5072517;28;20545;-65
2021/06/04 06:51:13;;;;;;;12.20;11.07;;;20.80;99.90;;;;;;5071830;28;20469;-65
2021/06/04 06:53:41;;;;;;;12.90;11.70;;;20.60;99.90;;;;;;5072197;28;20860;-66
2021/06/04 06:56:13;;;;;;;12.50;11.50;;;20.30;99.90;;;;;;5072062;28;20443;-69
2021/06/04 06:58:39;;;;;;;12.73;11.63;;;20.40;99.90;;;;;;5071934;28;20941;-66
2021/06/04 07:01:08;;;;;;;12.10;10.90;;;20.50;99.90;;;;;;5071558;28;20546;-66
2021/06/04 07:03:36;;;;;;;13.60;12.40;;;20.50;99.90;;;;;;5072056;28;20439;-66
2021/06/04 07:06:08;;;;;;;14.60;13.20;;;20.60;99.90;;;;;;5071889;28;20450;-66
2021/06/04 07:08:35;;;;;;;14.43;13.13;;;20.50;99.90;;;;;;5071753;28;20451;-66
2021/06/04 07:27:55;;;;;;;17.93;15.30;;;20.30;99.90;;;;;;5122617;22;20525;-72
2021/06/04 07:30:24;;;;;;;16.37;14.97;;;20.40;99.90;;;;;;5095551;28;20893;-72
2021/06/04 07:32:52;;;;;;;14.77;13.30;;;20.50;99.90;;;;;;5092134;28;20529;-72
2021/06/04 07:35:21;;;;;;;16.87;15.40;;;20.70;99.90;;;;;;5092029;28;20442;-72
2021/06/04 07:37:48;;;;;;;16.17;14.57;;;20.70;99.90;;;;;;5091913;28;20489;-73
2021/06/04 07:40:19;;;;;;;17.87;16.37;;;20.60;99.90;;;;;;5091628;28;20474;-72
2021/06/04 07:42:46;;;;;;;16.17;14.53;;;20.70;99.90;;;;;;5091889;28;20457;-72
2021/06/04 07:45:15;;;;;;;15.17;13.87;;;20.90;99.90;;;;;;5091819;28;20884;-72
2021/06/04 07:47:42;;;;;;;15.27;13.90;;;20.90;99.90;;;;;;5091850;28;20549;-72
2021/06/04 07:50:11;;;;;;;14.33;12.93;;;21.00;99.90;;;;;;5091373;28;20791;-72
2021/06/04 07:52:38;;;;;;;13.97;12.57;;;21.10;99.90;;;;;;5091921;28;20879;-72
2021/06/04 07:55:07;;;;;;;13.60;12.40;;;21.40;99.90;;;;;;5091653;28;20529;-72
2021/06/04 07:57:34;;;;;;;13.40;12.10;;;21.50;99.90;;;;;;5091552;28;20584;-72
2021/06/04 08:00:00;;;;;;;11.83;10.83;;;21.60;99.90;;;;;;5091683;28;20518;-72
2021/06/04 08:02:28;;;;;;;11.20;9.90;;;21.80;99.90;;;;;;5090535;28;20948;-72
2021/06/04 08:04:54;;;;;;;11.20;10.00;;;21.90;99.90;;;;;;5091793;28;20615;-72
2021/06/04 08:07:21;;;;;;;10.03;8.90;;;22.00;99.90;;;;;;5091656;28;20671;-72
2021/06/04 08:09:47;;;;;;;9.90;8.40;;;22.00;99.90;;;;;;5091399;28;20521;-72
2021/06/04 08:12:15;;;;;;;9.40;8.40;;;22.00;99.90;;;;;;5092206;28;20525;-72
2021/06/04 08:14:42;;;;;;;8.70;7.80;;;22.20;99.90;;;;;;5092213;28;20450;-71
2021/06/04 08:17:10;;;;;;;9.30;7.17;;;22.40;99.90;;;;;;5092017;28;20554;-72
2021/06/04 08:19:38;;;;;;;8.83;7.53;;;22.50;99.90;;;;;;5092099;28;20482;-72
2021/06/04 08:22:08;;;;;;;8.80;7.87;;;22.50;99.90;;;;;;5098825;28;20461;-71
2021/06/04 08:24:36;;;;;;;7.70;7.00;;;22.70;99.90;;;;;;5102160;28;20438;-71
2021/06/04 08:27:05;;;;;;;7.33;6.63;;;23.00;99.90;;;;;;5092302;28;20551;-72
2021/06/04 08:29:32;;;;;;;8.67;7.87;;;23.10;99.90;;;;;;5092376;28;20482;-72
2021/06/04 08:31:58;;;;;;;9.83;8.93;;;23.20;99.90;;;;;;5092054;28;20439;-72
2021/06/04 08:34:26;;;;;;;7.63;6.93;;;22.80;99.90;;;;;;5090891;28;20446;-72
2021/06/04 08:36:54;;;;;;;8.73;7.80;;;22.80;99.90;;;;;;5090920;28;20847;-72
2021/06/04 08:39:29;;;;;;;9.27;8.40;;;22.90;99.90;;;;;;5090952;28;20478;-72
2021/06/04 08:42:02;;;;;;;8.93;8.07;;;23.00;99.90;;;;;;5090624;28;20544;-72
2021/06/04 08:44:42;;;;;;;8.77;7.83;;;23.00;99.90;;;;;;5091079;28;21050;-71
2021/06/04 08:47:14;;;;;;;9.10;8.20;;;23.00;99.90;;;;;;5090869;28;20500;-72
2021/06/04 08:49:56;;;;;;;8.93;7.83;;;23.10;99.90;;;;;;5090567;28;20938;-72
2021/06/04 08:52:32;;;;;;;8.97;8.17;;;23.20;99.90;;;;;;5090749;28;20934;-72
2021/06/04 08:55:03;;;;;;;9.43;8.50;;;23.40;99.90;;;;;;5090721;28;20442;-72
2021/06/04 08:57:44;;;;;;;8.47;7.57;;;23.70;99.90;;;;;;5090990;28;20497;-72
2021/06/04 09:00:13;;;;;;;10.70;7.27;;;23.70;99.90;;;;;;5090497;28;20478;-72
2021/06/04 09:02:41;;;;;;;8.23;7.43;;;23.80;99.90;;;;;;5090580;28;20484;-72
2021/06/04 09:05:14;;;;;;;8.90;7.97;;;24.00;99.90;;;;;;5090609;28;20523;-72
2021/06/04 09:07:46;;;;;;;7.07;6.47;;;24.20;99.90;;;;;;5090435;28;20591;-72
2021/06/04 09:10:17;;;;;;;8.17;7.07;;;24.40;99.90;;;;;;5090345;28;20540;-72
2021/06/04 09:12:48;;;;;;;8.83;7.93;;;24.30;99.90;;;;;;5090574;28;20477;-72
2021/06/04 09:15:18;;;;;;;9.53;6.73;;;24.40;99.90;;;;;;5090345;28;20953;-72
2021/06/04 09:17:52;;;;;;;10.93;8.17;;;24.30;99.90;;;;;;5090487;28;21044;-72
2021/06/04 09:20:38;;;;;;;9.53;6.70;;;24.20;99.90;;;;;;5089905;28;20470;-72
2021/06/04 09:23:09;;;;;;;8.73;7.60;;;24.20;99.90;;;;;;5090619;28;21027;-72
2021/06/04 09:25:36;;;;;;;10.30;8.63;;;24.30;99.90;;;;;;5090336;28;20560;-71
2021/06/04 09:28:24;;;;;;;9.00;8.10;;;24.10;99.90;;;;;;5089926;28;20472;-72
2021/06/04 09:30:52;;;;;;;8.70;7.90;;;24.30;99.90;;;;;;5090505;28;20525;-72
2021/06/04 09:33:26;;;;;;;10.07;9.10;;;24.50;99.90;;;;;;5090151;28;20862;-72
2021/06/04 09:36:14;;;;;;;10.97;9.97;;;24.70;99.90;;;;;;5090173;28;20539;-72
2021/06/04 09:38:45;;;;;;;9.60;8.80;;;24.60;99.90;;;;;;5082821;28;20483;-72
2021/06/04 09:41:26;;;;;;;10.80;9.73;;;24.90;99.90;;;;;;5089955;28;20929;-72
2021/06/04 09:44:05;;;;;;;9.83;8.60;;;25.00;99.90;;;;;;5090265;28;20465;-72
2021/06/04 09:46:34;;;;;;;8.70;7.80;;;25.30;99.90;;;;;;5089894;28;20498;-72
2021/06/04 09:49:02;;;;;;;10.70;9.60;;;25.40;99.90;;;;;;5089899;28;20525;-71
2021/06/04 09:51:32;;;;;;;10.60;9.70;;;25.40;99.90;;;;;;5089935;28;20474;-72
2021/06/04 09:54:23;;;;;;;9.53;8.70;;;25.50;99.90;;;;;;5092953;28;20862;-72
2021/06/04 09:56:50;;;;;;;10.23;8.80;;;25.60;99.90;;;;;;5094069;28;20472;-70
2021/06/04 09:59:23;;;;;;;10.13;9.13;;;26.00;99.90;;;;;;5093864;28;20833;-72
2021/06/04 10:01:52;;;;;;;8.07;7.37;;;26.20;99.90;;;;;;5094159;28;20437;-70
2021/06/04 10:04:27;;;;;;;7.70;6.50;;;26.90;99.90;;;;;;5093979;28;20571;-70
2021/06/04 10:07:02;;;;;;;8.60;7.80;;;27.80;99.90;;;;;;5093983;28;20472;-70
2021/06/04 10:09:34;;;;;;;7.90;7.10;;;27.90;99.90;;;;;;5093636;28;20918;-70
2021/06/04 10:12:05;;;;;;;6.00;5.40;;;28.20;99.90;;;;;;5093630;28;20888;-70
2021/06/04 10:14:46;;;;;;;6.30;5.80;;;28.90;99.90;;;;;;5093824;28;20910;-70
2021/06/04 10:17:45;;;;;;;4.90;4.40;;;29.50;99.90;;;;;;5093779;28;20477;-70
2021/06/04 10:20:41;;;;;;;5.47;3.87;;;29.60;99.90;;;;;;5093675;28;21015;-70
2021/06/04 10:23:18;;;;;;;4.83;3.80;;;30.10;99.90;;;;;;5036927;28;20454;-70
2021/06/04 10:25:50;;;;;;;6.27;3.50;;;30.00;97.20;;;;;;5093649;28;20520;-70
2021/06/04 10:28:43;;;;;;;7.30;4.80;;;29.80;99.90;;;;;;5093546;28;20528;-70
2021/06/04 10:31:32;;;;;;;6.97;6.20;;;29.90;99.90;;;;;;5069930;28;20458;-70
2021/06/04 10:34:05;;;;;;;5.27;4.77;;;29.80;99.90;;;;;;5093910;28;20466;-70
2021/06/04 10:36:35;;;;;;;7.20;5.30;;;30.00;99.90;;;;;;5093514;28;20552;-70
2021/06/04 10:39:07;;;;;;;6.03;5.37;;;29.80;99.90;;;;;;5093501;28;20534;-70
2021/06/04 10:41:45;;;;;;;7.33;5.90;;;30.30;99.90;;;;;;5093659;28;20444;-71
2021/06/04 10:44:19;;;;;;;6.50;4.30;;;30.40;98.40;;;;;;5093574;28;20478;-71
2021/06/04 10:46:48;;;;;;;6.83;4.00;;;30.30;94.30;;;;;;5093295;28;20935;-70
2021/06/04 10:49:30;;;;;;;5.37;4.87;;;29.90;96.00;;;;;;5109021;22;20503;-66
2021/06/04 10:51:59;;;;;;;4.97;4.47;;;30.00;97.20;;;;;;5113312;28;20862;-66
2021/06/04 10:54:36;;;;;;;5.77;4.80;;;30.30;98.80;;;;;;5113365;28;20522;-69
2021/06/04 10:57:10;;;;;;;8.17;4.80;;;30.30;97.40;;;;;;5112351;28;20466;-70
2021/06/04 10:59:44;;;;;;;6.37;4.83;;;30.00;96.40;;;;;;5112389;28;20472;-69
2021/06/04 11:02:20;;;;;;;6.40;5.23;;;29.80;98.10;;;;;;5112960;28;20441;-70
2021/06/04 11:04:59;;;;;;;6.00;5.40;;;28.80;96.70;;;;;;5112220;28;20468;-66
2021/06/04 11:07:32;;;;;;;5.33;4.63;;;28.10;99.90;;;;;;5112637;28;20519;-68
2021/06/04 11:10:07;;;;;;;5.93;5.17;;;27.70;99.90;;;;;;5112029;28;20473;-67
2021/06/04 11:12:49;;;;;;;7.50;5.50;;;27.20;99.90;;;;;;5112618;28;20437;-69
2021/06/04 11:15:22;;;;;;;6.70;5.87;;;26.80;99.90;;;;;;5112296;28;21013;-69
2021/06/04 11:17:56;;;;;;;6.40;5.23;;;26.40;99.90;;;;;;5112367;28;20532;-66
2021/06/04 11:20:26;;;;;;;5.47;4.97;;;26.30;99.90;;;;;;5112063;28;20622;-67
2021/06/04 11:23:02;;;;;;;13.23;5.17;;;26.10;99.90;;;;;;5112244;28;20452;-67
2021/06/04 11:25:51;;;;;;;5.40;4.90;;;25.80;99.90;;;;;;5112306;28;20441;-66
2021/06/04 11:28:41;;;;;;;5.40;4.63;;;25.80;99.90;;;;;;5112295;28;20441;-67
2021/06/04 11:31:15;;;;;;;6.77;5.00;;;25.90;99.90;;;;;;5111928;28;20481;-70
2021/06/04 11:33:48;;;;;;;4.93;4.50;;;25.80;99.90;;;;;;5112062;28;20542;-67
2021/06/04 11:36:19;;;;;;;6.37;5.03;;;25.90;99.90;;;;;;5112040;28;20987;-67
2021/06/04 11:38:49;;;;;;;5.10;4.60;;;25.90;99.90;;;;;;5111884;28;20451;-68
2021/06/04 11:41:21;;;;;;;6.00;5.40;;;25.80;99.90;;;;;;5111386;28;20931;-70
2021/06/04 11:43:54;;;;;;;6.07;5.47;;;25.90;99.90;;;;;;5111861;28;20515;-67
2021/06/04 11:46:25;;;;;;;7.43;5.40;;;26.00;99.90;;;;;;5111770;28;20445;-67
2021/06/04 11:49:14;;;;;;;5.70;5.10;;;25.90;99.90;;;;;;5111635;28;20552;-68
2021/06/04 11:51:48;;;;;;;5.53;5.03;;;25.80;99.90;;;;;;5105449;28;20541;-70
2021/06/04 11:54:22;;;;;;;5.70;4.77;;;25.60;99.90;;;;;;5111680;28;20461;-66
2021/06/04 11:56:56;;;;;;;5.80;5.30;;;25.20;99.90;;;;;;5111922;28;20894;-66
2021/06/04 12:00:08;;;;;;;10.87;6.60;;;24.60;99.90;;;;;;5111211;28;20817;-66
2021/06/04 12:02:44;;;;;;;11.20;7.20;;;23.00;99.90;;;;;;5111229;28;20947;-65
2021/06/04 12:05:36;;;;;;;7.40;3.33;;;20.60;99.90;;;;;;5111338;28;20455;-68
2021/06/04 12:08:44;;;;;;;13.50;4.47;;;19.20;99.90;;;;;;5111194;28;20532;-71
2021/06/04 12:11:34;;;;;;;8.97;4.80;;;18.50;99.90;;;;;;5100727;28;20595;-69
2021/06/04 12:14:20;;;;;;;12.23;6.20;;;18.20;99.90;;;;;;5111167;28;20575;-68
2021/06/04 12:17:25;;;;;;;12.53;6.00;;;18.10;99.90;;;;;;5110489;28;20483;-68
2021/06/04 12:20:20;;;;;;;7.90;4.70;;;18.20;99.90;;;;;;5090159;28;20827;-66
2021/06/04 12:22:49;;;;;;;6.40;5.27;;;18.30;99.90;;;;;;5110818;28;20449;-70
2021/06/04 12:25:41;;;;;;;8.60;7.13;;;18.40;99.90;;;;;;5110943;28;20449;-67
2021/06/04 12:28:10;;;;;;;13.90;8.80;;;18.60;99.90;;;;;;5110993;28;20835;-67
2021/06/04 12:31:04;;;;;;;12.43;6.57;;;18.80;99.90;;;;;;5110698;28;20530;-68
2021/06/04 12:33:39;;;;;;;10.80;6.40;;;18.80;99.90;;;;;;5111266;28;20926;-71
2021/06/04 12:36:49;;;;;;;10.83;6.70;;;18.80;99.90;;;;;;5111208;28;20958;-71
2021/06/04 12:40:15;;;;;;;13.37;6.10;;;18.80;99.90;;;;;;5110775;28;20441;-71
2021/06/04 12:42:46;;;;;;;10.83;7.63;;;18.80;99.90;;;;;;5110827;28;21017;-66
2021/06/04 12:45:29;;;;;;;8.77;7.87;;;18.80;99.90;;;;;;5110866;28;21033;-66
2021/06/04 12:48:02;;;;;;;9.27;7.50;;;18.80;99.90;;;;;;5110625;28;20433;-69
2021/06/04 12:50:32;;;;;;;11.30;8.80;;;18.90;99.90;;;;;;5110018;28;20483;-66
2021/06/04 12:53:21;;;;;;;11.03;8.30;;;18.90;99.90;;;;;;5110421;28;20548;-67
2021/06/04 12:55:50;;;;;;;9.50;7.67;;;18.80;99.90;;;;;;5110475;28;20438;-70
2021/06/04 12:58:29;;;;;;;10.83;8.53;;;18.80;99.90;;;;;;5110294;28;20449;-68
2021/06/04 13:01:08;;;;;;;15.03;10.40;;;18.90;99.90;;;;;;5110313;28;20433;-66
2021/06/04 13:03:39;;;;;;;13.37;11.23;;;19.00;99.90;;;;;;5110722;28;20544;-68
2021/06/04 13:06:12;;;;;;;12.50;10.60;;;19.00;99.90;;;;;;5110506;28;20524;-67
2021/06/04 13:08:45;;;;;;;12.90;11.70;;;19.10;99.90;;;;;;5110269;28;20449;-70
2021/06/04 13:11:12;;;;;;;13.40;10.67;;;19.20;99.90;;;;;;5110258;28;20553;-67
2021/06/04 13:13:43;;;;;;;13.07;11.77;;;19.30;99.90;;;;;;5110381;28;20468;-70
2021/06/04 13:16:20;;;;;;;13.20;11.83;;;19.40;99.90;;;;;;5110231;28;20445;-67